Terminal Aerodrome Forecast
Issued by NWS

Home | Current Version | Previous Version | Graphics & Text | Print | Product List | Glossary On
Versions: 1 2 3 4 5 6 7 8 9 10 11 12 13 14 15 16 17 18
000
FTUS43 KABR 181859 AAA
TAFMBG
TAF AMD
KMBG 181859Z 1819/1918 30011KT P6SM FEW250
     FM190000 25006KT P6SM FEW150
     FM190800 16009KT P6SM FEW250 WS020/20035KT
     FM191000 16010KT P6SM FEW250=

USA.gov is the U.S. government's official web portal to all federal, state and local government web resources and services.